.
WxDataArchive / Data Records for 2013-06-23
2013-06-22 June 2013 2013-06-24

Data Records for Sunday, 23 June 2013

Time	Temp	Chill	HIndex	Humid	Dewpt	 Wind 	HiWind	WindDir	Rain 	Barom 
-----	----	-----	------	-----	-----	------	------	-------	-----	----- 
00:00	73.0	73.0	73.0	76	65.0	0	0	---	0.00	30.047 
00:05	72.8	72.8	72.8	76	64.8	0	0	---	0.00	30.047 
00:10	72.7	72.7	72.7	77	65.1	0	0	---	0.00	30.047 
00:15	72.7	72.7	72.7	77	65.1	0	0	---	0.00	30.048 
00:20	72.5	72.5	72.5	77	64.9	0	0	---	0.00	30.048 
00:25	72.3	72.3	72.3	78	65.0	0	0	---	0.00	30.048 
00:30	72.1	72.1	72.1	78	64.8	0	0	---	0.00	30.044 
00:35	72.0	72.0	72.0	79	65.1	0	0	---	0.00	30.044 
00:40	71.8	71.8	71.8	80	65.3	0	0	---	0.00	30.044 
00:45	71.5	71.5	71.5	80	65.0	0	0	---	0.00	30.035 
00:50	71.3	71.3	71.3	81	65.2	0	0	---	0.00	30.035 
00:55	71.1	71.1	71.1	81	65.0	0	0	---	0.00	30.035 
01:00	70.9	70.9	70.9	81	64.8	0	0	---	0.00	30.033 
01:05	70.9	70.9	70.9	82	65.1	0	0	---	0.00	30.033 
01:10	70.8	70.8	70.8	83	65.4	0	0	---	0.00	30.033 
01:15	70.6	70.6	70.6	83	65.2	0	0	---	0.00	30.024 
01:20	70.4	70.4	70.4	83	65.0	0	0	---	0.00	30.024 
01:25	70.3	70.3	70.3	84	65.2	0	0	---	0.00	30.024 
01:30	70.1	70.1	70.1	84	65.0	0	0	---	0.00	30.027 
01:35	69.9	69.9	69.9	84	64.8	0	0	---	0.00	30.027 
01:40	69.8	69.8	69.8	85	65.1	0	0	---	0.00	30.027 
01:45	69.6	69.6	69.6	85	64.9	0	0	---	0.00	30.026 
01:50	69.4	69.4	69.4	86	65.0	0	0	---	0.00	30.026 
01:55	69.3	69.3	69.3	86	64.9	0	0	---	0.00	30.026 
02:00	69.1	69.1	69.1	87	65.1	0	0	---	0.00	30.027 
02:05	68.9	68.9	68.9	87	64.9	0	0	---	0.00	30.027 
02:10	68.9	68.9	68.9	88	65.2	0	0	---	0.00	30.027 
02:15	68.8	68.8	68.8	88	65.1	0	0	---	0.00	30.020 
02:20	68.6	68.6	68.6	88	64.9	0	0	---	0.00	30.020 
02:25	68.6	68.6	68.6	88	64.9	0	0	---	0.00	30.020 
02:30	68.4	68.4	68.4	88	64.7	0	0	---	0.00	30.019 
02:35	68.3	68.3	68.3	89	64.9	0	0	---	0.00	30.019 
02:40	68.3	68.3	68.3	89	64.9	0	0	---	0.00	30.019 
02:45	68.1	68.1	68.1	89	64.7	0	0	---	0.00	30.020 
02:50	68.1	68.1	68.1	90	65.0	0	0	---	0.00	30.020 
02:55	68.1	68.1	68.1	90	65.0	0	0	---	0.00	30.020 
03:00	68.1	68.1	68.1	90	65.0	0	0	---	0.00	30.022 
03:05	68.1	68.1	68.1	90	65.0	0	0	---	0.00	30.022 
03:10	68.1	68.1	68.1	90	65.0	0	0	---	0.00	30.022 
03:15	68.1	68.1	68.1	91	65.4	0	0	---	0.00	30.029 
03:20	68.3	68.3	68.3	91	65.6	0	0	---	0.00	30.029 
03:25	68.3	68.3	68.3	91	65.6	0	0	---	0.00	30.029 
03:30	68.4	68.4	68.4	91	65.7	0	0	---	0.00	30.031 
03:35	68.4	68.4	68.4	91	65.7	0	0	---	0.00	30.031 
03:40	68.6	68.6	68.6	91	65.9	0	1	248	0.00	30.031 
03:45	68.6	68.6	68.6	91	65.9	0	1	248	0.00	30.031 
03:50	68.6	68.6	68.6	91	65.9	0	1	248	0.00	30.031 
03:55	68.6	68.6	68.6	91	65.9	0	0	---	0.00	30.031 
04:00	68.6	68.6	68.6	91	65.9	0	1	248	0.00	30.025 
04:05	68.6	68.6	68.6	91	65.9	0	0	---	0.00	30.025 
04:10	68.6	68.6	68.6	91	65.9	0	0	---	0.00	30.025 
04:15	68.6	68.6	68.6	91	65.9	0	0	---	0.00	30.030 
04:20	68.6	68.6	68.6	91	65.9	0	0	---	0.00	30.030 
04:25	68.4	68.4	68.4	91	65.7	0	0	---	0.00	30.030 
04:30	68.4	68.4	68.4	91	65.7	0	0	---	0.00	30.030 
04:35	68.4	68.4	68.4	91	65.7	0	0	---	0.00	30.030 
04:40	68.4	68.4	68.4	91	65.7	0	0	---	0.00	30.030 
04:45	68.3	68.3	68.3	91	65.6	0	0	---	0.00	30.037 
04:50	68.3	68.3	68.3	91	65.6	0	0	---	0.00	30.037 
04:55	68.3	68.3	68.3	91	65.6	0	0	---	0.00	30.037 
05:00	68.3	68.3	68.3	91	65.6	0	0	---	0.00	30.039 
05:05	68.3	68.3	68.3	91	65.6	0	0	---	0.00	30.039 
05:10	68.3	68.3	68.3	91	65.6	0	0	---	0.00	30.039 
05:15	68.3	68.3	68.3	91	65.6	0	0	---	0.00	30.053 
05:20	68.3	68.3	68.3	91	65.6	0	0	---	0.00	30.053 
05:25	68.3	68.3	68.3	91	65.6	0	0	---	0.00	30.053 
05:30	68.3	68.3	68.3	91	65.6	0	0	---	0.00	30.052 
05:35	68.3	68.3	68.3	91	65.6	0	0	---	0.00	30.052 
05:40	68.3	68.3	68.3	91	65.6	0	0	---	0.00	30.052 
05:45	68.3	68.3	68.3	91	65.6	0	0	---	0.00	30.048 
05:50	68.3	68.3	68.3	91	65.6	0	0	---	0.00	30.048 
05:55	68.3	68.3	68.3	91	65.6	0	0	---	0.00	30.048 
06:00	68.3	68.3	68.3	91	65.6	0	0	---	0.00	30.050 
06:05	68.3	68.3	68.3	91	65.6	0	0	---	0.00	30.050 
06:10	68.3	68.3	68.3	92	65.9	0	0	---	0.00	30.050 
06:15	68.3	68.3	68.3	91	65.6	0	0	---	0.00	30.052 
06:20	68.3	68.3	68.3	92	65.9	0	0	---	0.00	30.052 
06:25	68.3	68.3	68.3	92	65.9	0	0	---	0.00	30.052 
06:30	68.4	68.4	68.4	92	66.0	0	0	---	0.00	30.053 
06:35	68.4	68.4	68.4	92	66.0	0	1	248	0.00	30.053 
06:40	68.6	68.6	68.6	92	66.2	0	1	248	0.00	30.053 
06:45	68.8	68.8	68.8	91	66.1	0	0	---	0.00	30.056 
06:50	68.9	68.9	68.9	91	66.2	0	0	---	0.00	30.056 
06:55	68.9	68.9	68.9	91	66.2	0	0	---	0.00	30.056 
07:00	69.1	69.1	69.1	91	66.4	0	0	---	0.00	30.059 
07:05	69.1	69.1	69.1	91	66.4	0	0	---	0.00	30.059 
07:10	69.3	69.3	69.3	90	66.2	0	0	---	0.00	30.059 
07:15	69.3	69.3	69.3	90	66.2	0	0	---	0.00	30.061 
07:20	69.4	69.4	69.4	90	66.3	0	0	---	0.00	30.061 
07:25	69.6	69.6	69.6	90	66.5	0	0	---	0.00	30.061 
07:30	69.6	69.6	69.6	90	66.5	0	1	135	0.00	30.069 
07:35	69.8	69.8	69.8	90	66.7	0	0	---	0.00	30.069 
07:40	69.9	69.9	69.9	90	66.8	0	0	---	0.00	30.069 
07:45	69.9	69.9	69.9	89	66.5	0	0	---	0.00	30.074 
07:50	70.1	70.1	70.1	89	66.7	0	0	---	0.00	30.074 
07:55	70.3	70.3	70.3	89	66.9	0	0	---	0.00	30.074 
08:00	70.4	70.4	70.4	89	67.0	0	0	---	0.00	30.075 
08:05	70.6	70.6	70.6	88	66.9	0	0	---	0.00	30.075 
08:10	70.8	70.8	70.8	88	67.1	0	0	---	0.00	30.075 
08:15	70.9	70.9	70.9	87	66.8	0	0	---	0.00	30.076 
08:20	71.3	71.3	71.3	88	67.6	0	0	---	0.00	30.076 
08:25	71.5	71.5	71.5	87	67.4	0	1	135	0.00	30.076 
08:30	71.8	71.8	71.8	85	67.0	0	1	135	0.00	30.072 
08:35	72.0	72.0	72.0	85	67.2	0	0	---	0.00	30.072 
08:40	72.3	72.3	72.3	84	67.2	0	0	---	0.00	30.072 
08:45	72.5	72.5	72.5	83	67.0	0	1	135	0.00	30.071 
08:50	72.8	72.8	72.8	82	67.0	0	1	135	0.00	30.071 
08:55	73.2	73.2	73.2	82	67.4	0	1	135	0.00	30.071 
09:00	73.5	73.5	73.5	81	67.3	0	2	135	0.00	30.067 
09:05	74.0	74.0	74.0	80	67.4	0	2	90	0.00	30.067 
09:10	74.6	74.6	74.6	78	67.3	0	2	90	0.00	30.067 
09:15	75.3	75.3	76.3	77	67.6	0	2	90	0.00	30.062 
09:20	75.8	75.8	77.1	75	67.3	0	2	90	0.00	30.062 
09:25	76.0	76.0	77.4	75	67.5	0	1	90	0.00	30.062 
09:30	76.5	76.5	78.1	72	66.8	1	4	90	0.00	30.049 
09:35	77.0	77.0	78.8	71	66.9	1	4	90	0.00	30.049 
09:40	77.9	77.9	79.9	70	67.3	0	2	90	0.00	30.049 
09:45	78.8	78.8	81.1	69	67.7	0	3	45	0.00	30.036 
09:50	79.6	79.6	82.0	67	67.7	1	4	45	0.00	30.036 
09:55	79.8	79.8	82.1	65	67.0	1	3	292	0.00	30.036 
10:00	79.8	79.8	82.3	67	67.8	0	2	292	0.00	30.035 
10:05	79.9	79.9	82.5	67	67.9	0	1	292	0.00	30.035 
10:10	80.3	80.3	82.8	65	67.4	1	2	292	0.00	30.035 
10:15	80.5	80.5	83.2	66	68.1	1	2	292	0.00	30.035 
10:20	80.9	80.9	83.5	64	67.6	0	1	292	0.00	30.035 
10:25	81.1	81.1	83.8	64	67.7	0	2	292	0.00	30.035 
10:30	81.4	81.4	84.3	64	68.0	0	2	292	0.00	30.023 
10:35	82.0	82.0	84.8	62	67.7	1	3	0	0.00	30.023 
10:40	82.4	82.4	85.8	64	69.0	0	2	0	0.00	30.023 
10:45	82.6	82.6	85.9	63	68.7	1	3	90	0.00	30.025 
10:50	82.8	82.8	86.3	63	68.9	1	6	90	0.00	30.025 
10:55	83.2	83.2	86.2	60	67.8	0	2	90	0.00	30.025 
11:00	83.4	83.4	86.8	61	68.5	1	2	45	0.00	30.022 
11:05	83.6	83.6	86.9	60	68.2	1	3	22	0.00	30.022 
11:10	83.8	83.8	87.7	62	69.4	1	3	292	0.00	30.022 
11:15	83.6	83.6	86.9	60	68.2	1	4	90	0.00	30.022 
11:20	84.0	84.0	87.8	61	69.1	1	3	90	0.00	30.022 
11:25	84.0	84.0	87.3	59	68.1	1	3	90	0.00	30.022 
11:30	84.1	84.1	87.4	59	68.2	1	3	68	0.00	30.020 
11:35	84.3	84.3	88.0	60	68.9	1	6	90	0.00	30.020 
11:40	84.3	84.3	87.2	57	67.4	1	4	292	0.00	30.020 
11:45	84.7	84.7	88.1	58	68.3	1	6	45	0.00	30.026 
11:50	84.7	84.7	88.1	58	68.3	1	3	270	0.00	30.026 
11:55	84.7	84.7	88.1	58	68.3	1	3	292	0.00	30.026 
12:00	84.9	84.9	88.5	58	68.4	1	3	292	0.00	30.022 
12:05	85.1	85.1	88.5	57	68.1	1	6	68	0.00	30.022 
12:10	85.3	85.3	88.5	56	67.8	1	4	270	0.00	30.022 
12:15	85.5	85.5	88.3	54	66.9	1	4	270	0.00	30.020 
12:20	85.7	85.7	88.9	55	67.6	1	3	0	0.00	30.020 
12:25	86.3	86.3	89.9	55	68.2	1	4	68	0.00	30.020 
12:30	86.5	86.5	89.3	52	66.7	1	3	68	0.00	30.020 
12:35	86.7	86.7	89.9	53	67.5	1	4	338	0.00	30.020 
12:40	86.5	86.5	89.9	54	67.8	2	6	90	0.00	30.020 
12:45	86.7	86.7	89.9	53	67.5	1	5	90	0.00	30.021 
12:50	86.7	86.7	90.3	54	68.0	1	5	90	0.00	30.021 
12:55	87.0	87.0	91.1	55	68.8	1	7	90	0.00	30.021 
13:00	87.4	87.4	91.1	53	68.1	1	5	90	0.00	30.021 
13:05	87.8	87.8	92.6	55	69.6	1	3	90	0.00	30.021 
13:10	88.0	88.0	91.8	52	68.1	1	5	90	0.00	30.021 
13:15	88.0	88.0	91.8	52	68.1	1	5	90	0.00	30.029 
13:20	87.8	87.8	91.1	51	67.4	1	3	270	0.00	30.029 
13:25	87.2	87.2	89.4	49	65.7	2	4	292	0.00	30.029 
13:30	86.5	86.5	88.9	51	66.2	1	3	292	0.00	30.023 
13:35	87.0	87.0	90.4	53	67.8	0	3	292	0.00	30.023 
13:40	87.2	87.2	91.1	54	68.5	1	7	270	0.00	30.023 
13:45	87.4	87.4	91.1	53	68.1	1	4	270	0.00	30.020 
13:50	87.2	87.2	89.7	50	66.3	1	3	315	0.00	30.020 
13:55	86.7	86.7	88.9	50	65.8	1	4	270	0.00	30.020 
14:00	86.5	86.5	89.6	53	67.3	1	3	270	0.00	30.020 
14:05	86.7	86.7	89.3	51	66.4	1	4	270	0.00	30.020 
14:10	87.4	87.4	90.4	51	67.0	1	3	270	0.00	30.020 
14:15	87.8	87.8	90.4	49	66.2	1	4	68	0.00	30.020 
14:20	88.0	88.0	91.0	50	67.0	1	3	315	0.00	30.020 
14:25	88.2	88.2	90.7	48	66.0	2	5	315	0.00	30.020 
14:30	88.2	88.2	90.7	48	66.0	1	4	248	0.00	30.017 
14:35	88.0	88.0	90.7	49	66.4	1	5	270	0.00	30.017 
14:40	88.2	88.2	91.0	49	66.6	1	3	248	0.00	30.017 
14:45	88.4	88.4	91.3	49	66.8	2	4	270	0.00	30.017 
14:50	88.6	88.6	91.7	49	67.0	1	4	292	0.00	30.017 
14:55	88.2	88.2	91.4	50	67.2	1	5	270	0.00	30.017 
15:00	88.2	88.2	91.0	49	66.6	1	4	270	0.00	30.015 
15:05	87.6	87.6	90.0	49	66.0	1	4	270	0.00	30.015 
15:10	87.8	87.8	91.1	51	67.4	1	3	270	0.00	30.015 
15:15	88.0	88.0	90.7	49	66.4	2	4	270	0.00	30.012 
15:20	88.0	88.0	90.3	48	65.8	2	4	270	0.00	30.012 
15:25	88.0	88.0	90.0	47	65.2	1	3	270	0.00	30.012 
15:30	88.2	88.2	90.7	48	66.0	1	3	292	0.00	30.004 
15:35	88.6	88.6	91.3	48	66.4	0	3	292	0.00	30.004 
15:40	89.0	89.0	91.2	46	65.5	1	3	0	0.00	30.004 
15:45	89.0	89.0	91.6	47	66.1	1	5	0	0.00	29.999 
15:50	89.0	89.0	91.2	46	65.5	2	4	270	0.00	29.999 
15:55	88.2	88.2	90.3	47	65.4	1	5	270	0.00	29.999 
16:00	87.4	87.4	89.7	49	65.9	1	4	270	0.00	29.992 
16:05	87.2	87.2	89.7	50	66.3	1	5	270	0.00	29.992 
16:10	87.6	87.6	90.4	50	66.6	1	6	270	0.00	29.992 
16:15	88.0	88.0	90.0	47	65.2	1	4	270	0.00	29.986 
16:20	88.4	88.4	90.3	46	64.9	1	3	270	0.00	29.986 
16:25	88.6	88.6	90.6	46	65.1	1	4	270	0.00	29.986 
16:30	88.8	88.8	90.9	46	65.3	1	4	248	0.00	29.980 
16:35	88.8	88.8	90.6	45	64.7	1	3	248	0.00	29.980 
16:40	88.0	88.0	89.7	46	64.6	1	3	248	0.00	29.980 
16:45	87.8	87.8	90.0	48	65.6	1	3	292	0.00	29.973 
16:50	88.2	88.2	89.7	45	64.1	2	5	292	0.00	29.973 
16:55	88.4	88.4	90.0	45	64.3	2	4	292	0.00	29.973 
17:00	88.6	88.6	89.9	44	63.9	2	4	292	0.00	29.972 
17:05	88.6	88.6	89.6	43	63.2	2	5	292	0.00	29.972 
17:10	88.8	88.8	89.9	43	63.4	1	5	292	0.00	29.972 
17:15	88.8	88.8	89.3	41	62.0	1	5	292	0.00	29.969 
17:20	89.0	89.0	89.6	41	62.2	0	2	292	0.00	29.969 
17:25	89.0	89.0	89.3	40	61.5	0	2	292	0.00	29.969 
17:30	89.0	89.0	89.6	41	62.2	0	3	292	0.00	29.969 
17:35	89.5	89.5	90.6	42	63.3	0	2	22	0.00	29.969 
17:40	89.7	89.7	90.6	41	62.8	0	2	22	0.00	29.969 
17:45	89.9	89.9	90.9	41	63.0	1	4	22	0.00	29.963 
17:50	89.9	89.9	91.2	42	63.7	1	4	292	0.00	29.963 
17:55	89.7	89.7	90.2	40	62.1	2	4	292	0.00	29.963 
18:00	89.0	89.0	90.2	43	63.6	1	4	270	0.00	29.965 
18:05	88.8	88.8	89.6	42	62.7	1	2	270	0.00	29.965 
18:10	88.4	88.4	89.0	42	62.3	0	1	270	0.00	29.965 
18:15	88.2	88.2	89.0	43	62.8	0	3	270	0.00	29.969 
18:20	88.0	88.0	88.5	42	62.0	1	4	270	0.00	29.969 
18:25	87.8	87.8	88.2	42	61.8	1	2	270	0.00	29.969 
18:30	87.6	87.6	88.5	44	63.0	1	2	270	0.00	29.969 
18:35	87.4	87.4	88.2	44	62.8	1	3	270	0.00	29.969 
18:40	87.0	87.0	87.4	43	61.8	1	3	270	0.00	29.969 
18:45	86.7	86.7	87.5	45	62.8	1	3	270	0.00	29.971 
18:50	86.3	86.3	87.2	46	63.0	1	3	270	0.00	29.971 
18:55	86.1	86.1	87.0	46	62.9	1	3	270	0.00	29.971 
19:00	86.1	86.1	87.0	46	62.9	1	4	270	0.00	29.962 
19:05	86.1	86.1	87.2	47	63.5	1	3	270	0.00	29.962 
19:10	86.1	86.1	87.2	47	63.5	1	4	270	0.00	29.962 
19:15	86.1	86.1	87.5	48	64.1	0	2	270	0.00	29.972 
19:20	85.9	85.9	86.9	47	63.3	1	5	270	0.00	29.972 
19:25	83.2	83.2	84.3	51	63.2	3	11	292	0.00	29.972 
19:30	80.3	80.3	81.6	55	62.6	4	13	248	0.00	30.009 
19:35	78.3	78.3	80.0	60	63.2	2	10	270	0.00	30.009 
19:40	76.7	76.7	78.5	63	63.1	3	6	270	0.00	30.009 
19:45	75.6	75.6	77.6	64	62.5	3	6	248	0.00	30.029 
19:50	74.9	74.9	74.9	64	61.9	3	9	270	0.00	30.029 
19:55	74.6	74.6	74.6	65	62.0	2	6	292	0.00	30.029 
20:00	74.4	74.4	74.4	65	61.8	2	7	270	0.00	30.026 
20:05	74.4	74.4	74.4	64	61.4	1	5	270	0.00	30.026 
20:10	74.4	74.4	74.4	64	61.4	1	5	270	0.00	30.026 
20:15	74.4	74.4	74.4	64	61.4	1	5	270	0.00	30.026 
20:20	74.2	74.2	74.2	65	61.7	1	5	270	0.00	30.026 
20:25	74.2	74.2	74.2	65	61.7	1	4	248	0.00	30.026 
20:30	74.0	74.0	74.0	66	61.9	0	3	248	0.00	30.022 
20:35	74.0	74.0	74.0	68	62.8	0	2	248	0.00	30.022 
20:40	73.9	73.9	73.9	69	63.1	0	2	248	0.00	30.022 
20:45	73.5	73.5	73.5	70	63.1	0	1	248	0.00	30.020 
20:50	73.3	73.3	73.3	72	63.7	0	1	248	0.00	30.020 
20:55	73.2	73.2	73.2	74	64.4	0	1	248	0.00	30.020 
21:00	73.0	73.0	73.0	76	65.0	0	0	---	0.00	30.009 
21:05	73.0	73.0	73.0	77	65.3	0	2	248	0.00	30.009 
21:10	72.8	72.8	72.8	78	65.5	0	1	248	0.00	30.009 
21:15	72.7	72.7	72.7	78	65.4	0	1	248	0.00	30.000 
21:20	72.5	72.5	72.5	78	65.2	0	1	248	0.00	30.000 
21:25	72.5	72.5	72.5	78	65.2	0	1	248	0.00	30.000 
21:30	72.5	72.5	72.5	77	64.9	0	1	248	0.00	29.991 
21:35	72.8	72.8	72.8	76	64.8	0	2	248	0.00	29.991 
21:40	73.0	73.0	73.0	76	65.0	0	0	---	0.00	29.991 
21:45	73.0	73.0	73.0	77	65.3	0	0	---	0.00	29.995 
21:50	73.0	73.0	73.0	77	65.3	0	1	248	0.00	29.995 
21:55	72.8	72.8	72.8	76	64.8	1	4	248	0.00	29.995 
22:00	72.7	72.7	72.7	75	64.3	0	2	112	0.00	29.993 
22:05	72.7	72.7	72.7	75	64.3	0	2	112	0.00	29.993 
22:10	72.5	72.5	72.5	77	64.9	0	2	112	0.00	29.993 
22:15	72.1	72.1	72.1	77	64.5	0	3	112	0.00	30.010 
22:20	72.0	72.0	72.0	77	64.4	1	3	112	0.00	30.010 
22:25	71.8	71.8	71.8	78	64.6	0	3	112	0.00	30.010 
22:30	71.6	71.6	71.6	78	64.4	0	2	112	0.00	30.018 
22:35	71.5	71.5	71.5	79	64.6	0	2	112	0.00	30.018 
22:40	71.3	71.3	71.3	80	64.8	0	1	112	0.00	30.018 
22:45	71.1	71.1	71.1	81	65.0	0	1	112	0.00	30.021 
22:50	70.9	70.9	70.9	81	64.8	0	3	248	0.00	30.021 
22:55	70.9	70.9	70.9	82	65.1	0	1	248	0.00	30.021 
23:00	70.9	70.9	70.9	83	65.5	0	1	248	0.00	30.021 
23:05	70.8	70.8	70.8	83	65.4	0	1	248	0.00	30.021 
23:10	70.8	70.8	70.8	83	65.4	0	1	248	0.00	30.021 
23:15	70.8	70.8	70.8	83	65.4	0	1	248	0.00	30.020 
23:20	70.8	70.8	70.8	84	65.7	0	2	248	0.00	30.020 
23:25	70.8	70.8	70.8	84	65.7	0	1	248	0.00	30.020 
23:30	70.8	70.8	70.8	84	65.7	0	2	248	0.00	30.007 
23:35	70.6	70.6	70.6	84	65.5	0	2	248	0.00	30.007 
23:40	70.6	70.6	70.6	84	65.5	0	2	248	0.00	30.007 
23:45	70.8	70.8	70.8	84	65.7	0	1	248	0.00	30.009 
23:50	70.8	70.8	70.8	84	65.7	0	1	248	0.00	30.009 
23:55	70.9	70.9	70.9	84	65.8	0	2	248	0.00	30.009 

CoCoRaHS
IN-AL-39
A2 Web Hosting
Creative Commons License
GoDaddy
search engine by freefind advanced

loaded 2018-11-20 15:06:50 • last modified 2010-11-18 10:43:29
Privacy PolicyDisclaimer
• wx.awcolley.com is powered by PmWiki v.2002016 •
• all content (unless otherwise noted) © 2018 A W Colley